<?xml version="1.0" encoding="UTF-8" standalone="no" ?>
<gpx xmlns="http://www.topografix.com/GPX/1/1" xmlns:xsi="http://www.w3.org/2001/XMLSchema-instance" xsi:schemaLocation="http://www.topografix.com/GPX/1/1 http://www.topografix.com/GPX/1/1/gpx.xsd" version="1.1" creator="VisuGPX - https://www.visugpx.com">
  <metadata>
    <name>I-Got U</name>
    <desc><![CDATA[GPX de I Got-U]]></desc>
  </metadata>
  <trk>
    <name><![CDATA[Course à pied - Mex - Suisse]]></name>
    <desc><![CDATA[Color:004000ff]]></desc>
    <trkseg>
      <trkpt lat="46.56426" lon="6.5496">
        <ele>528.31</ele>
        <time>2015-09-04T10:06:02Z</time>
      </trkpt>
      <trkpt lat="46.56419" lon="6.54961">
        <ele>529.35</ele>
        <time>2015-09-04T10:06:08Z</time>
      </trkpt>
      <trkpt lat="46.56419" lon="6.54961">
        <ele>529.18</ele>
        <time>2015-09-04T10:06:13Z</time>
      </trkpt>
      <trkpt lat="46.56424" lon="6.54949">
        <ele>526.84</ele>
        <time>2015-09-04T10:06:18Z</time>
      </trkpt>
      <trkpt lat="46.56424" lon="6.54919">
        <ele>527.36</ele>
        <time>2015-09-04T10:06:23Z</time>
      </trkpt>
      <trkpt lat="46.56409" lon="6.54907">
        <ele>526.14</ele>
        <time>2015-09-04T10:06:28Z</time>
      </trkpt>
      <trkpt lat="46.56389" lon="6.54904">
        <ele>526.58</ele>
        <time>2015-09-04T10:06:33Z</time>
      </trkpt>
      <trkpt lat="46.56376" lon="6.54897">
        <ele>527.53</ele>
        <time>2015-09-04T10:06:38Z</time>
      </trkpt>
      <trkpt lat="46.56377" lon="6.54877">
        <ele>526.14</ele>
        <time>2015-09-04T10:06:43Z</time>
      </trkpt>
      <trkpt lat="46.56377" lon="6.54854">
        <ele>526.66</ele>
        <time>2015-09-04T10:06:48Z</time>
      </trkpt>
      <trkpt lat="46.56359" lon="6.54846">
        <ele>527.01</ele>
        <time>2015-09-04T10:06:53Z</time>
      </trkpt>
      <trkpt lat="46.56344" lon="6.54863">
        <ele>526.05</ele>
        <time>2015-09-04T10:06:58Z</time>
      </trkpt>
      <trkpt lat="46.56331" lon="6.5488">
        <ele>527.01</ele>
        <time>2015-09-04T10:07:03Z</time>
      </trkpt>
      <trkpt lat="46.56315" lon="6.5489">
        <ele>525.97</ele>
        <time>2015-09-04T10:07:08Z</time>
      </trkpt>
      <trkpt lat="46.56297" lon="6.54891">
        <ele>525.79</ele>
        <time>2015-09-04T10:07:13Z</time>
      </trkpt>
      <trkpt lat="46.56282" lon="6.54893">
        <ele>523.36</ele>
        <time>2015-09-04T10:07:18Z</time>
      </trkpt>
      <trkpt lat="46.56266" lon="6.54894">
        <ele>523.97</ele>
        <time>2015-09-04T10:07:23Z</time>
      </trkpt>
      <trkpt lat="46.56251" lon="6.54897">
        <ele>523.88</ele>
        <time>2015-09-04T10:07:28Z</time>
      </trkpt>
      <trkpt lat="46.56236" lon="6.54901">
        <ele>523.8</ele>
        <time>2015-09-04T10:07:33Z</time>
      </trkpt>
      <trkpt lat="46.56219" lon="6.54905">
        <ele>522.58</ele>
        <time>2015-09-04T10:07:38Z</time>
      </trkpt>
      <trkpt lat="46.56204" lon="6.54909">
        <ele>521.19</ele>
        <time>2015-09-04T10:07:43Z</time>
      </trkpt>
      <trkpt lat="46.56188" lon="6.54908">
        <ele>520.93</ele>
        <time>2015-09-04T10:07:48Z</time>
      </trkpt>
      <trkpt lat="46.56173" lon="6.54909">
        <ele>520.76</ele>
        <time>2015-09-04T10:07:53Z</time>
      </trkpt>
      <trkpt lat="46.56158" lon="6.5491">
        <ele>519.03</ele>
        <time>2015-09-04T10:07:58Z</time>
      </trkpt>
      <trkpt lat="46.56143" lon="6.54908">
        <ele>518.76</ele>
        <time>2015-09-04T10:08:03Z</time>
      </trkpt>
      <trkpt lat="46.56128" lon="6.54908">
        <ele>516.77</ele>
        <time>2015-09-04T10:08:08Z</time>
      </trkpt>
      <trkpt lat="46.56113" lon="6.54908">
        <ele>518.42</ele>
        <time>2015-09-04T10:08:13Z</time>
      </trkpt>
      <trkpt lat="46.56096" lon="6.54911">
        <ele>515.9</ele>
        <time>2015-09-04T10:08:18Z</time>
      </trkpt>
      <trkpt lat="46.56081" lon="6.54914">
        <ele>515.56</ele>
        <time>2015-09-04T10:08:23Z</time>
      </trkpt>
      <trkpt lat="46.56066" lon="6.54914">
        <ele>514.77</ele>
        <time>2015-09-04T10:08:28Z</time>
      </trkpt>
      <trkpt lat="46.56049" lon="6.54915">
        <ele>513.13</ele>
        <time>2015-09-04T10:08:33Z</time>
      </trkpt>
      <trkpt lat="46.56033" lon="6.54913">
        <ele>512.43</ele>
        <time>2015-09-04T10:08:38Z</time>
      </trkpt>
      <trkpt lat="46.56018" lon="6.5491">
        <ele>512.09</ele>
        <time>2015-09-04T10:08:43Z</time>
      </trkpt>
      <trkpt lat="46.56" lon="6.54907">
        <ele>511.39</ele>
        <time>2015-09-04T10:08:48Z</time>
      </trkpt>
      <trkpt lat="46.55984" lon="6.54912">
        <ele>510.44</ele>
        <time>2015-09-04T10:08:53Z</time>
      </trkpt>
      <trkpt lat="46.55968" lon="6.54919">
        <ele>509.75</ele>
        <time>2015-09-04T10:08:58Z</time>
      </trkpt>
      <trkpt lat="46.55953" lon="6.54929">
        <ele>508.19</ele>
        <time>2015-09-04T10:09:03Z</time>
      </trkpt>
      <trkpt lat="46.55938" lon="6.54943">
        <ele>508.1</ele>
        <time>2015-09-04T10:09:08Z</time>
      </trkpt>
      <trkpt lat="46.55924" lon="6.54953">
        <ele>506.8</ele>
        <time>2015-09-04T10:09:13Z</time>
      </trkpt>
      <trkpt lat="46.5591" lon="6.5496">
        <ele>507.06</ele>
        <time>2015-09-04T10:09:18Z</time>
      </trkpt>
      <trkpt lat="46.55896" lon="6.54963">
        <ele>506.02</ele>
        <time>2015-09-04T10:09:23Z</time>
      </trkpt>
      <trkpt lat="46.55881" lon="6.54957">
        <ele>503.85</ele>
        <time>2015-09-04T10:09:28Z</time>
      </trkpt>
      <trkpt lat="46.55867" lon="6.54945">
        <ele>504.03</ele>
        <time>2015-09-04T10:09:33Z</time>
      </trkpt>
      <trkpt lat="46.55855" lon="6.54933">
        <ele>503.94</ele>
        <time>2015-09-04T10:09:38Z</time>
      </trkpt>
      <trkpt lat="46.55843" lon="6.54921">
        <ele>503.68</ele>
        <time>2015-09-04T10:09:43Z</time>
      </trkpt>
      <trkpt lat="46.55835" lon="6.54905">
        <ele>503.85</ele>
        <time>2015-09-04T10:09:48Z</time>
      </trkpt>
      <trkpt lat="46.55844" lon="6.54887">
        <ele>500.91</ele>
        <time>2015-09-04T10:09:53Z</time>
      </trkpt>
      <trkpt lat="46.55852" lon="6.54868">
        <ele>501.69</ele>
        <time>2015-09-04T10:09:58Z</time>
      </trkpt>
      <trkpt lat="46.5586" lon="6.5485">
        <ele>501.43</ele>
        <time>2015-09-04T10:10:03Z</time>
      </trkpt>
      <trkpt lat="46.55868" lon="6.54831">
        <ele>502.29</ele>
        <time>2015-09-04T10:10:08Z</time>
      </trkpt>
      <trkpt lat="46.55877" lon="6.54811">
        <ele>502.56</ele>
        <time>2015-09-04T10:10:13Z</time>
      </trkpt>
      <trkpt lat="46.55883" lon="6.54792">
        <ele>501.86</ele>
        <time>2015-09-04T10:10:18Z</time>
      </trkpt>
      <trkpt lat="46.5589" lon="6.54773">
        <ele>502.56</ele>
        <time>2015-09-04T10:10:23Z</time>
      </trkpt>
      <trkpt lat="46.55896" lon="6.54754">
        <ele>500.91</ele>
        <time>2015-09-04T10:10:28Z</time>
      </trkpt>
      <trkpt lat="46.55899" lon="6.54731">
        <ele>501.6</ele>
        <time>2015-09-04T10:10:33Z</time>
      </trkpt>
      <trkpt lat="46.55901" lon="6.54707">
        <ele>500.56</ele>
        <time>2015-09-04T10:10:38Z</time>
      </trkpt>
      <trkpt lat="46.55901" lon="6.54685">
        <ele>500.82</ele>
        <time>2015-09-04T10:10:43Z</time>
      </trkpt>
      <trkpt lat="46.55904" lon="6.54663">
        <ele>499.78</ele>
        <time>2015-09-04T10:10:48Z</time>
      </trkpt>
      <trkpt lat="46.55906" lon="6.54643">
        <ele>498.05</ele>
        <time>2015-09-04T10:10:53Z</time>
      </trkpt>
      <trkpt lat="46.55913" lon="6.54625">
        <ele>498.4</ele>
        <time>2015-09-04T10:10:58Z</time>
      </trkpt>
      <trkpt lat="46.55919" lon="6.54605">
        <ele>498.74</ele>
        <time>2015-09-04T10:11:03Z</time>
      </trkpt>
      <trkpt lat="46.55927" lon="6.54587">
        <ele>497.96</ele>
        <time>2015-09-04T10:11:08Z</time>
      </trkpt>
      <trkpt lat="46.55933" lon="6.54566">
        <ele>499</ele>
        <time>2015-09-04T10:11:13Z</time>
      </trkpt>
      <trkpt lat="46.55933" lon="6.54538">
        <ele>498.66</ele>
        <time>2015-09-04T10:11:18Z</time>
      </trkpt>
      <trkpt lat="46.55926" lon="6.54516">
        <ele>498.66</ele>
        <time>2015-09-04T10:11:23Z</time>
      </trkpt>
      <trkpt lat="46.55917" lon="6.54495">
        <ele>497.79</ele>
        <time>2015-09-04T10:11:28Z</time>
      </trkpt>
      <trkpt lat="46.55909" lon="6.54475">
        <ele>498.14</ele>
        <time>2015-09-04T10:11:33Z</time>
      </trkpt>
      <trkpt lat="46.55903" lon="6.54456">
        <ele>496.75</ele>
        <time>2015-09-04T10:11:38Z</time>
      </trkpt>
      <trkpt lat="46.55899" lon="6.54434">
        <ele>495.89</ele>
        <time>2015-09-04T10:11:43Z</time>
      </trkpt>
      <trkpt lat="46.55894" lon="6.54413">
        <ele>494.93</ele>
        <time>2015-09-04T10:11:48Z</time>
      </trkpt>
      <trkpt lat="46.55893" lon="6.54391">
        <ele>494.16</ele>
        <time>2015-09-04T10:11:53Z</time>
      </trkpt>
      <trkpt lat="46.55891" lon="6.5437">
        <ele>492.42</ele>
        <time>2015-09-04T10:11:58Z</time>
      </trkpt>
      <trkpt lat="46.55897" lon="6.54355">
        <ele>493.81</ele>
        <time>2015-09-04T10:12:03Z</time>
      </trkpt>
      <trkpt lat="46.5591" lon="6.54348">
        <ele>492.77</ele>
        <time>2015-09-04T10:12:08Z</time>
      </trkpt>
      <trkpt lat="46.55929" lon="6.54343">
        <ele>492.77</ele>
        <time>2015-09-04T10:12:13Z</time>
      </trkpt>
      <trkpt lat="46.55942" lon="6.54331">
        <ele>491.65</ele>
        <time>2015-09-04T10:12:18Z</time>
      </trkpt>
      <trkpt lat="46.55948" lon="6.54308">
        <ele>490.17</ele>
        <time>2015-09-04T10:12:23Z</time>
      </trkpt>
      <trkpt lat="46.55949" lon="6.5429">
        <ele>490.35</ele>
        <time>2015-09-04T10:12:28Z</time>
      </trkpt>
      <trkpt lat="46.55951" lon="6.5427">
        <ele>490.61</ele>
        <time>2015-09-04T10:12:33Z</time>
      </trkpt>
      <trkpt lat="46.55952" lon="6.54248">
        <ele>489.4</ele>
        <time>2015-09-04T10:12:38Z</time>
      </trkpt>
      <trkpt lat="46.55956" lon="6.54228">
        <ele>489.74</ele>
        <time>2015-09-04T10:12:43Z</time>
      </trkpt>
      <trkpt lat="46.55963" lon="6.54209">
        <ele>488.96</ele>
        <time>2015-09-04T10:12:48Z</time>
      </trkpt>
      <trkpt lat="46.55975" lon="6.54191">
        <ele>487.49</ele>
        <time>2015-09-04T10:12:53Z</time>
      </trkpt>
      <trkpt lat="46.55987" lon="6.54175">
        <ele>486.37</ele>
        <time>2015-09-04T10:12:58Z</time>
      </trkpt>
      <trkpt lat="46.55997" lon="6.54168">
        <ele>486.46</ele>
        <time>2015-09-04T10:13:03Z</time>
      </trkpt>
      <trkpt lat="46.56004" lon="6.54173">
        <ele>486.28</ele>
        <time>2015-09-04T10:13:08Z</time>
      </trkpt>
      <trkpt lat="46.56011" lon="6.54178">
        <ele>485.33</ele>
        <time>2015-09-04T10:13:13Z</time>
      </trkpt>
      <trkpt lat="46.56029" lon="6.5418">
        <ele>486.37</ele>
        <time>2015-09-04T10:13:18Z</time>
      </trkpt>
      <trkpt lat="46.56054" lon="6.54176">
        <ele>485.07</ele>
        <time>2015-09-04T10:13:23Z</time>
      </trkpt>
      <trkpt lat="46.56072" lon="6.54169">
        <ele>485.5</ele>
        <time>2015-09-04T10:13:28Z</time>
      </trkpt>
      <trkpt lat="46.56082" lon="6.54155">
        <ele>486.2</ele>
        <time>2015-09-04T10:13:33Z</time>
      </trkpt>
      <trkpt lat="46.56081" lon="6.54132">
        <ele>485.5</ele>
        <time>2015-09-04T10:13:38Z</time>
      </trkpt>
      <trkpt lat="46.56078" lon="6.54109">
        <ele>484.55</ele>
        <time>2015-09-04T10:13:43Z</time>
      </trkpt>
      <trkpt lat="46.56073" lon="6.54092">
        <ele>485.76</ele>
        <time>2015-09-04T10:13:48Z</time>
      </trkpt>
      <trkpt lat="46.56065" lon="6.54081">
        <ele>485.16</ele>
        <time>2015-09-04T10:13:53Z</time>
      </trkpt>
      <trkpt lat="46.56073" lon="6.54058">
        <ele>484.99</ele>
        <time>2015-09-04T10:13:58Z</time>
      </trkpt>
      <trkpt lat="46.56084" lon="6.54048">
        <ele>486.28</ele>
        <time>2015-09-04T10:14:03Z</time>
      </trkpt>
      <trkpt lat="46.56101" lon="6.5404">
        <ele>486.02</ele>
        <time>2015-09-04T10:14:08Z</time>
      </trkpt>
      <trkpt lat="46.56109" lon="6.54027">
        <ele>487.67</ele>
        <time>2015-09-04T10:14:13Z</time>
      </trkpt>
      <trkpt lat="46.56117" lon="6.5401">
        <ele>487.75</ele>
        <time>2015-09-04T10:14:18Z</time>
      </trkpt>
      <trkpt lat="46.5613" lon="6.53991">
        <ele>487.06</ele>
        <time>2015-09-04T10:14:23Z</time>
      </trkpt>
      <trkpt lat="46.56138" lon="6.53971">
        <ele>488.36</ele>
        <time>2015-09-04T10:14:28Z</time>
      </trkpt>
      <trkpt lat="46.56146" lon="6.5395">
        <ele>487.93</ele>
        <time>2015-09-04T10:14:33Z</time>
      </trkpt>
      <trkpt lat="46.5615" lon="6.53933">
        <ele>488.44</ele>
        <time>2015-09-04T10:14:38Z</time>
      </trkpt>
      <trkpt lat="46.56152" lon="6.53914">
        <ele>489.05</ele>
        <time>2015-09-04T10:14:43Z</time>
      </trkpt>
      <trkpt lat="46.56153" lon="6.53895">
        <ele>488.1</ele>
        <time>2015-09-04T10:14:48Z</time>
      </trkpt>
      <trkpt lat="46.56157" lon="6.53878">
        <ele>489.48</ele>
        <time>2015-09-04T10:14:53Z</time>
      </trkpt>
      <trkpt lat="46.56165" lon="6.53859">
        <ele>490.17</ele>
        <time>2015-09-04T10:14:58Z</time>
      </trkpt>
      <trkpt lat="46.56163" lon="6.53838">
        <ele>489.48</ele>
        <time>2015-09-04T10:15:03Z</time>
      </trkpt>
      <trkpt lat="46.56159" lon="6.53817">
        <ele>489.66</ele>
        <time>2015-09-04T10:15:08Z</time>
      </trkpt>
      <trkpt lat="46.56153" lon="6.53794">
        <ele>488.7</ele>
        <time>2015-09-04T10:15:13Z</time>
      </trkpt>
      <trkpt lat="46.5615" lon="6.53778">
        <ele>487.75</ele>
        <time>2015-09-04T10:15:18Z</time>
      </trkpt>
      <trkpt lat="46.56145" lon="6.53762">
        <ele>487.06</ele>
        <time>2015-09-04T10:15:23Z</time>
      </trkpt>
      <trkpt lat="46.56141" lon="6.53739">
        <ele>487.41</ele>
        <time>2015-09-04T10:15:28Z</time>
      </trkpt>
      <trkpt lat="46.5614" lon="6.53718">
        <ele>486.97</ele>
        <time>2015-09-04T10:15:33Z</time>
      </trkpt>
      <trkpt lat="46.56135" lon="6.537">
        <ele>486.89</ele>
        <time>2015-09-04T10:15:38Z</time>
      </trkpt>
      <trkpt lat="46.56129" lon="6.5368">
        <ele>485.5</ele>
        <time>2015-09-04T10:15:43Z</time>
      </trkpt>
      <trkpt lat="46.56122" lon="6.53663">
        <ele>485.16</ele>
        <time>2015-09-04T10:15:48Z</time>
      </trkpt>
      <trkpt lat="46.56114" lon="6.53647">
        <ele>484.73</ele>
        <time>2015-09-04T10:15:53Z</time>
      </trkpt>
      <trkpt lat="46.56104" lon="6.53633">
        <ele>483</ele>
        <time>2015-09-04T10:15:58Z</time>
      </trkpt>
      <trkpt lat="46.56093" lon="6.53621">
        <ele>482.74</ele>
        <time>2015-09-04T10:16:03Z</time>
      </trkpt>
      <trkpt lat="46.56086" lon="6.53613">
        <ele>480.92</ele>
        <time>2015-09-04T10:16:08Z</time>
      </trkpt>
      <trkpt lat="46.56078" lon="6.53593">
        <ele>480.4</ele>
        <time>2015-09-04T10:16:13Z</time>
      </trkpt>
      <trkpt lat="46.5608" lon="6.5357">
        <ele>481.01</ele>
        <time>2015-09-04T10:16:18Z</time>
      </trkpt>
      <trkpt lat="46.56078" lon="6.53552">
        <ele>479.8</ele>
        <time>2015-09-04T10:16:23Z</time>
      </trkpt>
      <trkpt lat="46.56078" lon="6.53531">
        <ele>481.09</ele>
        <time>2015-09-04T10:16:28Z</time>
      </trkpt>
      <trkpt lat="46.56072" lon="6.53508">
        <ele>478.07</ele>
        <time>2015-09-04T10:16:33Z</time>
      </trkpt>
      <trkpt lat="46.56063" lon="6.53492">
        <ele>478.76</ele>
        <time>2015-09-04T10:16:38Z</time>
      </trkpt>
      <trkpt lat="46.56051" lon="6.53479">
        <ele>479.8</ele>
        <time>2015-09-04T10:16:43Z</time>
      </trkpt>
      <trkpt lat="46.56039" lon="6.53469">
        <ele>479.54</ele>
        <time>2015-09-04T10:16:48Z</time>
      </trkpt>
      <trkpt lat="46.56027" lon="6.5346">
        <ele>478.93</ele>
        <time>2015-09-04T10:16:53Z</time>
      </trkpt>
      <trkpt lat="46.56023" lon="6.53438">
        <ele>478.67</ele>
        <time>2015-09-04T10:16:58Z</time>
      </trkpt>
      <trkpt lat="46.56021" lon="6.53415">
        <ele>477.29</ele>
        <time>2015-09-04T10:17:03Z</time>
      </trkpt>
      <trkpt lat="46.56016" lon="6.53397">
        <ele>477.38</ele>
        <time>2015-09-04T10:17:08Z</time>
      </trkpt>
      <trkpt lat="46.56009" lon="6.53377">
        <ele>476.43</ele>
        <time>2015-09-04T10:17:13Z</time>
      </trkpt>
      <trkpt lat="46.55997" lon="6.53381">
        <ele>475.48</ele>
        <time>2015-09-04T10:17:18Z</time>
      </trkpt>
      <trkpt lat="46.55985" lon="6.534">
        <ele>473.49</ele>
        <time>2015-09-04T10:17:23Z</time>
      </trkpt>
      <trkpt lat="46.55972" lon="6.53414">
        <ele>472.45</ele>
        <time>2015-09-04T10:17:28Z</time>
      </trkpt>
      <trkpt lat="46.55964" lon="6.53431">
        <ele>470.81</ele>
        <time>2015-09-04T10:17:33Z</time>
      </trkpt>
      <trkpt lat="46.55955" lon="6.53445">
        <ele>468.14</ele>
        <time>2015-09-04T10:17:38Z</time>
      </trkpt>
      <trkpt lat="46.55946" lon="6.5343">
        <ele>467.53</ele>
        <time>2015-09-04T10:17:43Z</time>
      </trkpt>
      <trkpt lat="46.5594" lon="6.53414">
        <ele>465.37</ele>
        <time>2015-09-04T10:17:48Z</time>
      </trkpt>
      <trkpt lat="46.55925" lon="6.53408">
        <ele>463.04</ele>
        <time>2015-09-04T10:17:53Z</time>
      </trkpt>
      <trkpt lat="46.55917" lon="6.53417">
        <ele>464.25</ele>
        <time>2015-09-04T10:17:58Z</time>
      </trkpt>
      <trkpt lat="46.55911" lon="6.53431">
        <ele>467.45</ele>
        <time>2015-09-04T10:18:03Z</time>
      </trkpt>
      <trkpt lat="46.55901" lon="6.53442">
        <ele>468.48</ele>
        <time>2015-09-04T10:18:08Z</time>
      </trkpt>
      <trkpt lat="46.55892" lon="6.53458">
        <ele>469.43</ele>
        <time>2015-09-04T10:18:13Z</time>
      </trkpt>
      <trkpt lat="46.55887" lon="6.53474">
        <ele>471.68</ele>
        <time>2015-09-04T10:18:18Z</time>
      </trkpt>
      <trkpt lat="46.55886" lon="6.53488">
        <ele>473.06</ele>
        <time>2015-09-04T10:18:23Z</time>
      </trkpt>
      <trkpt lat="46.55887" lon="6.53508">
        <ele>473.4</ele>
        <time>2015-09-04T10:18:28Z</time>
      </trkpt>
      <trkpt lat="46.55887" lon="6.53519">
        <ele>475.65</ele>
        <time>2015-09-04T10:18:33Z</time>
      </trkpt>
      <trkpt lat="46.5588" lon="6.53532">
        <ele>475.05</ele>
        <time>2015-09-04T10:18:38Z</time>
      </trkpt>
      <trkpt lat="46.55871" lon="6.53544">
        <ele>474.87</ele>
        <time>2015-09-04T10:18:43Z</time>
      </trkpt>
      <trkpt lat="46.55858" lon="6.53554">
        <ele>472.97</ele>
        <time>2015-09-04T10:18:48Z</time>
      </trkpt>
      <trkpt lat="46.55846" lon="6.5356">
        <ele>474.35</ele>
        <time>2015-09-04T10:18:53Z</time>
      </trkpt>
      <trkpt lat="46.55833" lon="6.53561">
        <ele>472.37</ele>
        <time>2015-09-04T10:18:58Z</time>
      </trkpt>
      <trkpt lat="46.55823" lon="6.5355">
        <ele>472.8</ele>
        <time>2015-09-04T10:19:03Z</time>
      </trkpt>
      <trkpt lat="46.55814" lon="6.53538">
        <ele>471.33</ele>
        <time>2015-09-04T10:19:08Z</time>
      </trkpt>
      <trkpt lat="46.558" lon="6.53528">
        <ele>469.43</ele>
        <time>2015-09-04T10:19:13Z</time>
      </trkpt>
      <trkpt lat="46.55782" lon="6.53528">
        <ele>465.81</ele>
        <time>2015-09-04T10:19:18Z</time>
      </trkpt>
      <trkpt lat="46.55768" lon="6.53523">
        <ele>464.94</ele>
        <time>2015-09-04T10:19:23Z</time>
      </trkpt>
      <trkpt lat="46.55753" lon="6.53547">
        <ele>463.56</ele>
        <time>2015-09-04T10:19:28Z</time>
      </trkpt>
      <trkpt lat="46.55754" lon="6.53572">
        <ele>462.01</ele>
        <time>2015-09-04T10:19:33Z</time>
      </trkpt>
      <trkpt lat="46.55752" lon="6.53589">
        <ele>459.68</ele>
        <time>2015-09-04T10:19:38Z</time>
      </trkpt>
      <trkpt lat="46.55746" lon="6.53621">
        <ele>458.82</ele>
        <time>2015-09-04T10:19:43Z</time>
      </trkpt>
      <trkpt lat="46.55749" lon="6.53655">
        <ele>457.78</ele>
        <time>2015-09-04T10:19:48Z</time>
      </trkpt>
      <trkpt lat="46.55764" lon="6.53663">
        <ele>458.9</ele>
        <time>2015-09-04T10:19:53Z</time>
      </trkpt>
      <trkpt lat="46.55772" lon="6.53677">
        <ele>458.21</ele>
        <time>2015-09-04T10:19:58Z</time>
      </trkpt>
      <trkpt lat="46.55779" lon="6.53691">
        <ele>458.9</ele>
        <time>2015-09-04T10:20:03Z</time>
      </trkpt>
      <trkpt lat="46.5578" lon="6.53706">
        <ele>458.73</ele>
        <time>2015-09-04T10:20:08Z</time>
      </trkpt>
      <trkpt lat="46.55773" lon="6.53729">
        <ele>459.68</ele>
        <time>2015-09-04T10:20:13Z</time>
      </trkpt>
      <trkpt lat="46.55769" lon="6.53741">
        <ele>459.85</ele>
        <time>2015-09-04T10:20:18Z</time>
      </trkpt>
      <trkpt lat="46.55767" lon="6.53743">
        <ele>460.54</ele>
        <time>2015-09-04T10:20:23Z</time>
      </trkpt>
      <trkpt lat="46.55762" lon="6.53735">
        <ele>462.61</ele>
        <time>2015-09-04T10:20:28Z</time>
      </trkpt>
      <trkpt lat="46.55757" lon="6.53729">
        <ele>463.82</ele>
        <time>2015-09-04T10:20:33Z</time>
      </trkpt>
      <trkpt lat="46.5575" lon="6.53717">
        <ele>467.53</ele>
        <time>2015-09-04T10:20:38Z</time>
      </trkpt>
      <trkpt lat="46.55742" lon="6.53711">
        <ele>469.34</ele>
        <time>2015-09-04T10:20:43Z</time>
      </trkpt>
      <trkpt lat="46.5573" lon="6.53709">
        <ele>468.91</ele>
        <time>2015-09-04T10:20:48Z</time>
      </trkpt>
      <trkpt lat="46.55716" lon="6.53703">
        <ele>468.74</ele>
        <time>2015-09-04T10:20:53Z</time>
      </trkpt>
      <trkpt lat="46.55701" lon="6.53698">
        <ele>467.88</ele>
        <time>2015-09-04T10:20:58Z</time>
      </trkpt>
      <trkpt lat="46.55689" lon="6.53693">
        <ele>470.04</ele>
        <time>2015-09-04T10:21:03Z</time>
      </trkpt>
      <trkpt lat="46.55677" lon="6.53701">
        <ele>470.81</ele>
        <time>2015-09-04T10:21:08Z</time>
      </trkpt>
      <trkpt lat="46.55668" lon="6.53719">
        <ele>470.9</ele>
        <time>2015-09-04T10:21:13Z</time>
      </trkpt>
      <trkpt lat="46.55666" lon="6.53738">
        <ele>472.71</ele>
        <time>2015-09-04T10:21:18Z</time>
      </trkpt>
      <trkpt lat="46.55661" lon="6.5374">
        <ele>473.49</ele>
        <time>2015-09-04T10:21:23Z</time>
      </trkpt>
      <trkpt lat="46.55655" lon="6.53737">
        <ele>475.22</ele>
        <time>2015-09-04T10:21:28Z</time>
      </trkpt>
      <trkpt lat="46.55644" lon="6.53735">
        <ele>474.53</ele>
        <time>2015-09-04T10:21:33Z</time>
      </trkpt>
      <trkpt lat="46.55636" lon="6.53733">
        <ele>475.48</ele>
        <time>2015-09-04T10:21:38Z</time>
      </trkpt>
      <trkpt lat="46.55629" lon="6.53722">
        <ele>474.96</ele>
        <time>2015-09-04T10:21:43Z</time>
      </trkpt>
      <trkpt lat="46.55619" lon="6.53718">
        <ele>473.15</ele>
        <time>2015-09-04T10:21:48Z</time>
      </trkpt>
      <trkpt lat="46.55608" lon="6.53714">
        <ele>473.66</ele>
        <time>2015-09-04T10:21:53Z</time>
      </trkpt>
      <trkpt lat="46.55594" lon="6.53707">
        <ele>472.45</ele>
        <time>2015-09-04T10:21:58Z</time>
      </trkpt>
      <trkpt lat="46.55578" lon="6.53702">
        <ele>471.85</ele>
        <time>2015-09-04T10:22:03Z</time>
      </trkpt>
      <trkpt lat="46.55563" lon="6.53703">
        <ele>471.24</ele>
        <time>2015-09-04T10:22:08Z</time>
      </trkpt>
      <trkpt lat="46.55552" lon="6.53707">
        <ele>470.99</ele>
        <time>2015-09-04T10:22:13Z</time>
      </trkpt>
      <trkpt lat="46.55541" lon="6.53711">
        <ele>469.78</ele>
        <time>2015-09-04T10:22:18Z</time>
      </trkpt>
      <trkpt lat="46.55524" lon="6.53715">
        <ele>469</ele>
        <time>2015-09-04T10:22:23Z</time>
      </trkpt>
      <trkpt lat="46.5551" lon="6.53715">
        <ele>469.34</ele>
        <time>2015-09-04T10:22:28Z</time>
      </trkpt>
      <trkpt lat="46.55497" lon="6.53721">
        <ele>468.83</ele>
        <time>2015-09-04T10:22:33Z</time>
      </trkpt>
      <trkpt lat="46.55484" lon="6.53733">
        <ele>468.57</ele>
        <time>2015-09-04T10:22:38Z</time>
      </trkpt>
      <trkpt lat="46.55479" lon="6.53759">
        <ele>468.05</ele>
        <time>2015-09-04T10:22:43Z</time>
      </trkpt>
      <trkpt lat="46.55483" lon="6.53775">
        <ele>469.34</ele>
        <time>2015-09-04T10:22:48Z</time>
      </trkpt>
      <trkpt lat="46.55496" lon="6.53787">
        <ele>471.42</ele>
        <time>2015-09-04T10:22:53Z</time>
      </trkpt>
      <trkpt lat="46.55503" lon="6.53803">
        <ele>471.68</ele>
        <time>2015-09-04T10:22:58Z</time>
      </trkpt>
      <trkpt lat="46.55512" lon="6.53816">
        <ele>473.06</ele>
        <time>2015-09-04T10:23:03Z</time>
      </trkpt>
      <trkpt lat="46.55519" lon="6.53835">
        <ele>473.4</ele>
        <time>2015-09-04T10:23:08Z</time>
      </trkpt>
      <trkpt lat="46.55526" lon="6.53852">
        <ele>474.27</ele>
        <time>2015-09-04T10:23:13Z</time>
      </trkpt>
      <trkpt lat="46.55532" lon="6.53867">
        <ele>473.06</ele>
        <time>2015-09-04T10:23:18Z</time>
      </trkpt>
      <trkpt lat="46.55541" lon="6.53879">
        <ele>475.22</ele>
        <time>2015-09-04T10:23:23Z</time>
      </trkpt>
      <trkpt lat="46.55547" lon="6.53893">
        <ele>475.91</ele>
        <time>2015-09-04T10:23:28Z</time>
      </trkpt>
      <trkpt lat="46.55549" lon="6.53892">
        <ele>475.56</ele>
        <time>2015-09-04T10:23:33Z</time>
      </trkpt>
      <trkpt lat="46.55539" lon="6.53897">
        <ele>475.39</ele>
        <time>2015-09-04T10:23:38Z</time>
      </trkpt>
      <trkpt lat="46.55528" lon="6.53913">
        <ele>473.4</ele>
        <time>2015-09-04T10:23:43Z</time>
      </trkpt>
      <trkpt lat="46.55522" lon="6.5393">
        <ele>473.49</ele>
        <time>2015-09-04T10:23:48Z</time>
      </trkpt>
      <trkpt lat="46.55518" lon="6.53948">
        <ele>474.27</ele>
        <time>2015-09-04T10:23:53Z</time>
      </trkpt>
      <trkpt lat="46.55525" lon="6.53966">
        <ele>474.96</ele>
        <time>2015-09-04T10:23:58Z</time>
      </trkpt>
      <trkpt lat="46.55528" lon="6.53983">
        <ele>474.01</ele>
        <time>2015-09-04T10:24:03Z</time>
      </trkpt>
      <trkpt lat="46.5553" lon="6.53997">
        <ele>474.79</ele>
        <time>2015-09-04T10:24:08Z</time>
      </trkpt>
      <trkpt lat="46.55535" lon="6.54014">
        <ele>475.13</ele>
        <time>2015-09-04T10:24:13Z</time>
      </trkpt>
      <trkpt lat="46.55537" lon="6.5403">
        <ele>475.48</ele>
        <time>2015-09-04T10:24:18Z</time>
      </trkpt>
      <trkpt lat="46.5555" lon="6.54039">
        <ele>476.6</ele>
        <time>2015-09-04T10:24:23Z</time>
      </trkpt>
      <trkpt lat="46.55554" lon="6.54051">
        <ele>477.98</ele>
        <time>2015-09-04T10:24:28Z</time>
      </trkpt>
      <trkpt lat="46.55564" lon="6.54061">
        <ele>479.11</ele>
        <time>2015-09-04T10:24:33Z</time>
      </trkpt>
      <trkpt lat="46.55573" lon="6.54071">
        <ele>479.71</ele>
        <time>2015-09-04T10:24:38Z</time>
      </trkpt>
      <trkpt lat="46.55577" lon="6.5409">
        <ele>479.54</ele>
        <time>2015-09-04T10:24:43Z</time>
      </trkpt>
      <trkpt lat="46.55584" lon="6.54103">
        <ele>484.38</ele>
        <time>2015-09-04T10:24:48Z</time>
      </trkpt>
      <trkpt lat="46.55592" lon="6.54115">
        <ele>481.35</ele>
        <time>2015-09-04T10:24:53Z</time>
      </trkpt>
      <trkpt lat="46.556" lon="6.5413">
        <ele>482.13</ele>
        <time>2015-09-04T10:24:58Z</time>
      </trkpt>
      <trkpt lat="46.55608" lon="6.54142">
        <ele>483.95</ele>
        <time>2015-09-04T10:25:03Z</time>
      </trkpt>
      <trkpt lat="46.55615" lon="6.54156">
        <ele>483.77</ele>
        <time>2015-09-04T10:25:08Z</time>
      </trkpt>
      <trkpt lat="46.55623" lon="6.5417">
        <ele>485.59</ele>
        <time>2015-09-04T10:25:13Z</time>
      </trkpt>
      <trkpt lat="46.55629" lon="6.54178">
        <ele>486.28</ele>
        <time>2015-09-04T10:25:18Z</time>
      </trkpt>
      <trkpt lat="46.55639" lon="6.54189">
        <ele>486.28</ele>
        <time>2015-09-04T10:25:23Z</time>
      </trkpt>
      <trkpt lat="46.55647" lon="6.54198">
        <ele>487.32</ele>
        <time>2015-09-04T10:25:28Z</time>
      </trkpt>
      <trkpt lat="46.5565" lon="6.54199">
        <ele>487.49</ele>
        <time>2015-09-04T10:25:33Z</time>
      </trkpt>
      <trkpt lat="46.5565" lon="6.54199">
        <ele>484.99</ele>
        <time>2015-09-04T10:25:38Z</time>
      </trkpt>
      <trkpt lat="46.55677" lon="6.54192">
        <ele>485.5</ele>
        <time>2015-09-04T10:25:43Z</time>
      </trkpt>
      <trkpt lat="46.5569" lon="6.54195">
        <ele>485.16</ele>
        <time>2015-09-04T10:25:48Z</time>
      </trkpt>
      <trkpt lat="46.55704" lon="6.54198">
        <ele>485.76</ele>
        <time>2015-09-04T10:25:53Z</time>
      </trkpt>
      <trkpt lat="46.55716" lon="6.54194">
        <ele>485.85</ele>
        <time>2015-09-04T10:25:58Z</time>
      </trkpt>
      <trkpt lat="46.55727" lon="6.5419">
        <ele>486.2</ele>
        <time>2015-09-04T10:26:03Z</time>
      </trkpt>
      <trkpt lat="46.55735" lon="6.54186">
        <ele>485.59</ele>
        <time>2015-09-04T10:26:08Z</time>
      </trkpt>
      <trkpt lat="46.55743" lon="6.54185">
        <ele>484.12</ele>
        <time>2015-09-04T10:26:13Z</time>
      </trkpt>
      <trkpt lat="46.55755" lon="6.54179">
        <ele>484.03</ele>
        <time>2015-09-04T10:26:18Z</time>
      </trkpt>
      <trkpt lat="46.55758" lon="6.54165">
        <ele>483.43</ele>
        <time>2015-09-04T10:26:23Z</time>
      </trkpt>
      <trkpt lat="46.55754" lon="6.54149">
        <ele>483.26</ele>
        <time>2015-09-04T10:26:28Z</time>
      </trkpt>
      <trkpt lat="46.55752" lon="6.54133">
        <ele>481.53</ele>
        <time>2015-09-04T10:26:33Z</time>
      </trkpt>
      <trkpt lat="46.55754" lon="6.54117">
        <ele>482.05</ele>
        <time>2015-09-04T10:26:38Z</time>
      </trkpt>
      <trkpt lat="46.55756" lon="6.54099">
        <ele>480.84</ele>
        <time>2015-09-04T10:26:43Z</time>
      </trkpt>
      <trkpt lat="46.55759" lon="6.54085">
        <ele>480.49</ele>
        <time>2015-09-04T10:26:48Z</time>
      </trkpt>
      <trkpt lat="46.55762" lon="6.54069">
        <ele>479.71</ele>
        <time>2015-09-04T10:26:53Z</time>
      </trkpt>
      <trkpt lat="46.55764" lon="6.54051">
        <ele>478.93</ele>
        <time>2015-09-04T10:26:58Z</time>
      </trkpt>
      <trkpt lat="46.55762" lon="6.54034">
        <ele>479.8</ele>
        <time>2015-09-04T10:27:03Z</time>
      </trkpt>
      <trkpt lat="46.55761" lon="6.54019">
        <ele>479.63</ele>
        <time>2015-09-04T10:27:08Z</time>
      </trkpt>
      <trkpt lat="46.55766" lon="6.5401">
        <ele>478.16</ele>
        <time>2015-09-04T10:27:13Z</time>
      </trkpt>
      <trkpt lat="46.55776" lon="6.5401">
        <ele>477.21</ele>
        <time>2015-09-04T10:27:18Z</time>
      </trkpt>
      <trkpt lat="46.55784" lon="6.54015">
        <ele>475.3</ele>
        <time>2015-09-04T10:27:23Z</time>
      </trkpt>
      <trkpt lat="46.55788" lon="6.54023">
        <ele>475.56</ele>
        <time>2015-09-04T10:27:28Z</time>
      </trkpt>
      <trkpt lat="46.55795" lon="6.54032">
        <ele>473.92</ele>
        <time>2015-09-04T10:27:33Z</time>
      </trkpt>
      <trkpt lat="46.55799" lon="6.54046">
        <ele>475.3</ele>
        <time>2015-09-04T10:27:38Z</time>
      </trkpt>
      <trkpt lat="46.55799" lon="6.54058">
        <ele>475.82</ele>
        <time>2015-09-04T10:27:43Z</time>
      </trkpt>
      <trkpt lat="46.5581" lon="6.54063">
        <ele>473.49</ele>
        <time>2015-09-04T10:27:48Z</time>
      </trkpt>
      <trkpt lat="46.55828" lon="6.54062">
        <ele>475.39</ele>
        <time>2015-09-04T10:27:53Z</time>
      </trkpt>
      <trkpt lat="46.5584" lon="6.54065">
        <ele>477.29</ele>
        <time>2015-09-04T10:27:58Z</time>
      </trkpt>
      <trkpt lat="46.55843" lon="6.54066">
        <ele>478.67</ele>
        <time>2015-09-04T10:28:03Z</time>
      </trkpt>
      <trkpt lat="46.55841" lon="6.54078">
        <ele>478.07</ele>
        <time>2015-09-04T10:28:08Z</time>
      </trkpt>
      <trkpt lat="46.55843" lon="6.54092">
        <ele>480.49</ele>
        <time>2015-09-04T10:28:13Z</time>
      </trkpt>
      <trkpt lat="46.55843" lon="6.54106">
        <ele>481.61</ele>
        <time>2015-09-04T10:28:18Z</time>
      </trkpt>
      <trkpt lat="46.55843" lon="6.54121">
        <ele>481.79</ele>
        <time>2015-09-04T10:28:23Z</time>
      </trkpt>
      <trkpt lat="46.55838" lon="6.54136">
        <ele>483.26</ele>
        <time>2015-09-04T10:28:28Z</time>
      </trkpt>
      <trkpt lat="46.55842" lon="6.54149">
        <ele>482.13</ele>
        <time>2015-09-04T10:28:33Z</time>
      </trkpt>
      <trkpt lat="46.55844" lon="6.54161">
        <ele>483.95</ele>
        <time>2015-09-04T10:28:38Z</time>
      </trkpt>
      <trkpt lat="46.55845" lon="6.54174">
        <ele>484.29</ele>
        <time>2015-09-04T10:28:43Z</time>
      </trkpt>
      <trkpt lat="46.55848" lon="6.54189">
        <ele>485.24</ele>
        <time>2015-09-04T10:28:48Z</time>
      </trkpt>
      <trkpt lat="46.5585" lon="6.54205">
        <ele>485.68</ele>
        <time>2015-09-04T10:28:53Z</time>
      </trkpt>
      <trkpt lat="46.55851" lon="6.54222">
        <ele>486.46</ele>
        <time>2015-09-04T10:28:58Z</time>
      </trkpt>
      <trkpt lat="46.55851" lon="6.54238">
        <ele>485.85</ele>
        <time>2015-09-04T10:29:03Z</time>
      </trkpt>
      <trkpt lat="46.55853" lon="6.54256">
        <ele>487.23</ele>
        <time>2015-09-04T10:29:08Z</time>
      </trkpt>
      <trkpt lat="46.55855" lon="6.54268">
        <ele>487.93</ele>
        <time>2015-09-04T10:29:13Z</time>
      </trkpt>
      <trkpt lat="46.55859" lon="6.54286">
        <ele>488.7</ele>
        <time>2015-09-04T10:29:18Z</time>
      </trkpt>
      <trkpt lat="46.55865" lon="6.54299">
        <ele>489.48</ele>
        <time>2015-09-04T10:29:23Z</time>
      </trkpt>
      <trkpt lat="46.5587" lon="6.54314">
        <ele>490.52</ele>
        <time>2015-09-04T10:29:28Z</time>
      </trkpt>
      <trkpt lat="46.55872" lon="6.5433">
        <ele>490.44</ele>
        <time>2015-09-04T10:29:33Z</time>
      </trkpt>
      <trkpt lat="46.55873" lon="6.54347">
        <ele>492.42</ele>
        <time>2015-09-04T10:29:38Z</time>
      </trkpt>
      <trkpt lat="46.55872" lon="6.54359">
        <ele>492.25</ele>
        <time>2015-09-04T10:29:43Z</time>
      </trkpt>
      <trkpt lat="46.55877" lon="6.54373">
        <ele>492.42</ele>
        <time>2015-09-04T10:29:48Z</time>
      </trkpt>
      <trkpt lat="46.55882" lon="6.54388">
        <ele>493.38</ele>
        <time>2015-09-04T10:29:53Z</time>
      </trkpt>
      <trkpt lat="46.55882" lon="6.54405">
        <ele>492.51</ele>
        <time>2015-09-04T10:29:58Z</time>
      </trkpt>
      <trkpt lat="46.55886" lon="6.54419">
        <ele>494.59</ele>
        <time>2015-09-04T10:30:03Z</time>
      </trkpt>
      <trkpt lat="46.55891" lon="6.54434">
        <ele>495.89</ele>
        <time>2015-09-04T10:30:08Z</time>
      </trkpt>
      <trkpt lat="46.55893" lon="6.5445">
        <ele>495.71</ele>
        <time>2015-09-04T10:30:13Z</time>
      </trkpt>
      <trkpt lat="46.55897" lon="6.54467">
        <ele>497.19</ele>
        <time>2015-09-04T10:30:18Z</time>
      </trkpt>
      <trkpt lat="46.55904" lon="6.54483">
        <ele>495.54</ele>
        <time>2015-09-04T10:30:23Z</time>
      </trkpt>
      <trkpt lat="46.55909" lon="6.54499">
        <ele>499.09</ele>
        <time>2015-09-04T10:30:28Z</time>
      </trkpt>
      <trkpt lat="46.55915" lon="6.54517">
        <ele>497.36</ele>
        <time>2015-09-04T10:30:33Z</time>
      </trkpt>
      <trkpt lat="46.55922" lon="6.54533">
        <ele>498.83</ele>
        <time>2015-09-04T10:30:38Z</time>
      </trkpt>
      <trkpt lat="46.55925" lon="6.54552">
        <ele>498.48</ele>
        <time>2015-09-04T10:30:43Z</time>
      </trkpt>
      <trkpt lat="46.55923" lon="6.54571">
        <ele>498.57</ele>
        <time>2015-09-04T10:30:48Z</time>
      </trkpt>
      <trkpt lat="46.55916" lon="6.5459">
        <ele>497.62</ele>
        <time>2015-09-04T10:30:53Z</time>
      </trkpt>
      <trkpt lat="46.55909" lon="6.54608">
        <ele>496.75</ele>
        <time>2015-09-04T10:30:58Z</time>
      </trkpt>
      <trkpt lat="46.55903" lon="6.54626">
        <ele>498.22</ele>
        <time>2015-09-04T10:31:03Z</time>
      </trkpt>
      <trkpt lat="46.55898" lon="6.54643">
        <ele>498.66</ele>
        <time>2015-09-04T10:31:08Z</time>
      </trkpt>
      <trkpt lat="46.55894" lon="6.54662">
        <ele>500.22</ele>
        <time>2015-09-04T10:31:13Z</time>
      </trkpt>
      <trkpt lat="46.55891" lon="6.54679">
        <ele>500.39</ele>
        <time>2015-09-04T10:31:18Z</time>
      </trkpt>
      <trkpt lat="46.55889" lon="6.54698">
        <ele>499.35</ele>
        <time>2015-09-04T10:31:23Z</time>
      </trkpt>
      <trkpt lat="46.55886" lon="6.54716">
        <ele>501</ele>
        <time>2015-09-04T10:31:28Z</time>
      </trkpt>
      <trkpt lat="46.55885" lon="6.54733">
        <ele>501.26</ele>
        <time>2015-09-04T10:31:33Z</time>
      </trkpt>
      <trkpt lat="46.55883" lon="6.5475">
        <ele>499.61</ele>
        <time>2015-09-04T10:31:38Z</time>
      </trkpt>
      <trkpt lat="46.55878" lon="6.54766">
        <ele>500.65</ele>
        <time>2015-09-04T10:31:43Z</time>
      </trkpt>
      <trkpt lat="46.55871" lon="6.54783">
        <ele>500.74</ele>
        <time>2015-09-04T10:31:48Z</time>
      </trkpt>
      <trkpt lat="46.55867" lon="6.548">
        <ele>501.34</ele>
        <time>2015-09-04T10:31:53Z</time>
      </trkpt>
      <trkpt lat="46.55861" lon="6.54818">
        <ele>499.78</ele>
        <time>2015-09-04T10:31:58Z</time>
      </trkpt>
      <trkpt lat="46.55855" lon="6.54834">
        <ele>500.82</ele>
        <time>2015-09-04T10:32:03Z</time>
      </trkpt>
      <trkpt lat="46.55848" lon="6.54853">
        <ele>500.91</ele>
        <time>2015-09-04T10:32:08Z</time>
      </trkpt>
      <trkpt lat="46.55841" lon="6.54872">
        <ele>501.34</ele>
        <time>2015-09-04T10:32:13Z</time>
      </trkpt>
      <trkpt lat="46.55836" lon="6.5489">
        <ele>501.34</ele>
        <time>2015-09-04T10:32:18Z</time>
      </trkpt>
      <trkpt lat="46.5583" lon="6.54907">
        <ele>503.25</ele>
        <time>2015-09-04T10:32:23Z</time>
      </trkpt>
      <trkpt lat="46.55833" lon="6.54927">
        <ele>500.91</ele>
        <time>2015-09-04T10:32:28Z</time>
      </trkpt>
      <trkpt lat="46.55847" lon="6.54938">
        <ele>502.81</ele>
        <time>2015-09-04T10:32:33Z</time>
      </trkpt>
      <trkpt lat="46.55862" lon="6.54947">
        <ele>503.16</ele>
        <time>2015-09-04T10:32:38Z</time>
      </trkpt>
      <trkpt lat="46.55877" lon="6.54957">
        <ele>503.42</ele>
        <time>2015-09-04T10:32:43Z</time>
      </trkpt>
      <trkpt lat="46.55891" lon="6.54964">
        <ele>503.85</ele>
        <time>2015-09-04T10:32:48Z</time>
      </trkpt>
      <trkpt lat="46.55905" lon="6.54966">
        <ele>504.63</ele>
        <time>2015-09-04T10:32:53Z</time>
      </trkpt>
      <trkpt lat="46.55919" lon="6.54967">
        <ele>505.67</ele>
        <time>2015-09-04T10:32:58Z</time>
      </trkpt>
      <trkpt lat="46.55933" lon="6.54961">
        <ele>506.8</ele>
        <time>2015-09-04T10:33:03Z</time>
      </trkpt>
      <trkpt lat="46.55948" lon="6.54952">
        <ele>503.85</ele>
        <time>2015-09-04T10:33:08Z</time>
      </trkpt>
      <trkpt lat="46.55961" lon="6.54943">
        <ele>507.49</ele>
        <time>2015-09-04T10:33:13Z</time>
      </trkpt>
      <trkpt lat="46.55974" lon="6.54935">
        <ele>508.36</ele>
        <time>2015-09-04T10:33:18Z</time>
      </trkpt>
      <trkpt lat="46.55986" lon="6.54928">
        <ele>509.83</ele>
        <time>2015-09-04T10:33:23Z</time>
      </trkpt>
      <trkpt lat="46.55999" lon="6.54926">
        <ele>510.53</ele>
        <time>2015-09-04T10:33:28Z</time>
      </trkpt>
      <trkpt lat="46.56006" lon="6.54924">
        <ele>510.09</ele>
        <time>2015-09-04T10:33:33Z</time>
      </trkpt>
      <trkpt lat="46.5601" lon="6.54921">
        <ele>510.7</ele>
        <time>2015-09-04T10:33:38Z</time>
      </trkpt>
      <trkpt lat="46.56016" lon="6.5492">
        <ele>512.17</ele>
        <time>2015-09-04T10:33:43Z</time>
      </trkpt>
      <trkpt lat="46.56023" lon="6.54919">
        <ele>512.17</ele>
        <time>2015-09-04T10:33:48Z</time>
      </trkpt>
      <trkpt lat="46.5603" lon="6.54918">
        <ele>512.17</ele>
        <time>2015-09-04T10:33:53Z</time>
      </trkpt>
      <trkpt lat="46.56038" lon="6.54918">
        <ele>512.09</ele>
        <time>2015-09-04T10:33:58Z</time>
      </trkpt>
      <trkpt lat="46.56046" lon="6.54919">
        <ele>512.52</ele>
        <time>2015-09-04T10:34:03Z</time>
      </trkpt>
      <trkpt lat="46.56055" lon="6.54919">
        <ele>513.21</ele>
        <time>2015-09-04T10:34:08Z</time>
      </trkpt>
      <trkpt lat="46.56061" lon="6.5492">
        <ele>513.73</ele>
        <time>2015-09-04T10:34:13Z</time>
      </trkpt>
      <trkpt lat="46.56068" lon="6.54921">
        <ele>514.17</ele>
        <time>2015-09-04T10:34:18Z</time>
      </trkpt>
      <trkpt lat="46.56079" lon="6.54922">
        <ele>513.65</ele>
        <time>2015-09-04T10:34:23Z</time>
      </trkpt>
      <trkpt lat="46.56096" lon="6.54921">
        <ele>515.04</ele>
        <time>2015-09-04T10:34:28Z</time>
      </trkpt>
      <trkpt lat="46.56112" lon="6.54922">
        <ele>516.6</ele>
        <time>2015-09-04T10:34:33Z</time>
      </trkpt>
      <trkpt lat="46.56127" lon="6.54923">
        <ele>515.04</ele>
        <time>2015-09-04T10:34:38Z</time>
      </trkpt>
      <trkpt lat="46.56143" lon="6.54923">
        <ele>519.29</ele>
        <time>2015-09-04T10:34:43Z</time>
      </trkpt>
      <trkpt lat="46.56158" lon="6.54925">
        <ele>519.63</ele>
        <time>2015-09-04T10:34:48Z</time>
      </trkpt>
      <trkpt lat="46.56174" lon="6.54925">
        <ele>520.41</ele>
        <time>2015-09-04T10:34:53Z</time>
      </trkpt>
      <trkpt lat="46.56189" lon="6.54926">
        <ele>520.24</ele>
        <time>2015-09-04T10:34:58Z</time>
      </trkpt>
      <trkpt lat="46.56204" lon="6.54923">
        <ele>522.15</ele>
        <time>2015-09-04T10:35:03Z</time>
      </trkpt>
      <trkpt lat="46.56219" lon="6.54918">
        <ele>522.84</ele>
        <time>2015-09-04T10:35:08Z</time>
      </trkpt>
      <trkpt lat="46.56233" lon="6.54915">
        <ele>522.58</ele>
        <time>2015-09-04T10:35:13Z</time>
      </trkpt>
      <trkpt lat="46.56247" lon="6.54912">
        <ele>524.41</ele>
        <time>2015-09-04T10:35:18Z</time>
      </trkpt>
      <trkpt lat="46.5626" lon="6.54909">
        <ele>525.27</ele>
        <time>2015-09-04T10:35:23Z</time>
      </trkpt>
      <trkpt lat="46.56272" lon="6.54906">
        <ele>525.79</ele>
        <time>2015-09-04T10:35:28Z</time>
      </trkpt>
      <trkpt lat="46.56284" lon="6.54904">
        <ele>525.71</ele>
        <time>2015-09-04T10:35:33Z</time>
      </trkpt>
      <trkpt lat="46.56298" lon="6.54903">
        <ele>525.71</ele>
        <time>2015-09-04T10:35:38Z</time>
      </trkpt>
      <trkpt lat="46.56313" lon="6.549">
        <ele>525.88</ele>
        <time>2015-09-04T10:35:43Z</time>
      </trkpt>
      <trkpt lat="46.56327" lon="6.54894">
        <ele>526.4</ele>
        <time>2015-09-04T10:35:48Z</time>
      </trkpt>
      <trkpt lat="46.56342" lon="6.54887">
        <ele>526.32</ele>
        <time>2015-09-04T10:35:53Z</time>
      </trkpt>
      <trkpt lat="46.56356" lon="6.54877">
        <ele>527.1</ele>
        <time>2015-09-04T10:35:58Z</time>
      </trkpt>
      <trkpt lat="46.56368" lon="6.54867">
        <ele>526.92</ele>
        <time>2015-09-04T10:36:03Z</time>
      </trkpt>
      <trkpt lat="46.56381" lon="6.54861">
        <ele>525.88</ele>
        <time>2015-09-04T10:36:08Z</time>
      </trkpt>
      <trkpt lat="46.56387" lon="6.54871">
        <ele>527.53</ele>
        <time>2015-09-04T10:36:13Z</time>
      </trkpt>
      <trkpt lat="46.56384" lon="6.5489">
        <ele>527.79</ele>
        <time>2015-09-04T10:36:18Z</time>
      </trkpt>
      <trkpt lat="46.56384" lon="6.54913">
        <ele>527.79</ele>
        <time>2015-09-04T10:36:23Z</time>
      </trkpt>
      <trkpt lat="46.56396" lon="6.5492">
        <ele>526.75</ele>
        <time>2015-09-04T10:36:28Z</time>
      </trkpt>
      <trkpt lat="46.56408" lon="6.5492">
        <ele>527.01</ele>
        <time>2015-09-04T10:36:33Z</time>
      </trkpt>
      <trkpt lat="46.56419" lon="6.54927">
        <ele>528.14</ele>
        <time>2015-09-04T10:36:38Z</time>
      </trkpt>
      <trkpt lat="46.56421" lon="6.54947">
        <ele>528.83</ele>
        <time>2015-09-04T10:36:43Z</time>
      </trkpt>
      <trkpt lat="46.56423" lon="6.54961">
        <ele>528.23</ele>
        <time>2015-09-04T10:36:48Z</time>
      </trkpt>
    </trkseg>
  </trk>
</gpx>